KPIE/PIE METAR and TAF weather

Enter ICAO airport designator
Station Type Date Time Source
KPIE METAR 2024/06/14 02:20 UTC NOAA

KPIE 140220Z AUTO 26008KT 4SM RA BR FEW060 BKN075 OVC110 25/25 A2986 RMK AO2 TSB0157E14 P0006 T02500250


Station Type Date Time Source
KPIE Decoded METAR 2024/06/14 02:20 UTC NOAA

ST PETERSBURG/CLEARWATER, FL, United States (KPIE) 27-55N 82-41W 4M
Jun 13, 2024 - 10:20 PM EDT / 2024.06.14 0220 UTC
Wind: from the W (260 degrees) at 9 MPH (8 KT):0
Visibility: 4 mile(s):0
Sky conditions: overcast
Weather: rain; mist
Precipitation last hour: 0.06 inches
Temperature: 77.0 F (25.0 C)
Dew Point: 77.0 F (25.0 C)
Relative Humidity: 100%
Pressure (altimeter): 29.86 in. Hg (1011 hPa)
ob: KPIE 140220Z AUTO 26008KT 4SM RA BR FEW060 BKN075 OVC110 25/25 A2986 RMK AO2 TSB0157E14 P0006 T02500250
cycle: 2

Station Type Date Time Source
KPIE TAF 2024/06/14 01:37 UTC NOAA